sensor_id;sensor_type;location;lat;lon;timestamp;P1;durP1;ratioP1;P2;durP2;ratioP2
67995;SDS011;54772;53.544;49.324;2023-07-20T00:05:12;6.35;;;2.85;;
67995;SDS011;54772;53.544;49.324;2023-07-20T00:10:45;5.97;;;2.80;;
67995;SDS011;54772;53.544;49.324;2023-07-20T00:13:32;4.18;;;2.60;;
67995;SDS011;54772;53.544;49.324;2023-07-20T00:16:19;3.53;;;2.62;;
67995;SDS011;54772;53.544;49.324;2023-07-20T00:21:53;4.47;;;2.50;;
67995;SDS011;54772;53.544;49.324;2023-07-20T00:24:40;3.85;;;2.28;;
67995;SDS011;54772;53.544;49.324;2023-07-20T00:27:27;3.58;;;2.30;;
67995;SDS011;54772;53.544;49.324;2023-07-20T00:33:01;3.33;;;2.30;;
67995;SDS011;54772;53.544;49.324;2023-07-20T00:35:48;2.20;;;2.00;;
67995;SDS011;54772;53.544;49.324;2023-07-20T00:38:35;3.58;;;2.40;;
67995;SDS011;54772;53.544;49.324;2023-07-20T00:41:22;3.08;;;2.00;;
67995;SDS011;54772;53.544;49.324;2023-07-20T00:44:09;2.15;;;1.95;;
67995;SDS011;54772;53.544;49.324;2023-07-20T00:46:57;2.08;;;1.70;;
67995;SDS011;54772;53.544;49.324;2023-07-20T00:49:45;2.42;;;1.77;;
67995;SDS011;54772;53.544;49.324;2023-07-20T00:52:31;2.70;;;1.90;;
67995;SDS011;54772;53.544;49.324;2023-07-20T00:55:19;2.45;;;1.60;;
67995;SDS011;54772;53.544;49.324;2023-07-20T00:58:06;2.92;;;1.90;;
67995;SDS011;54772;53.544;49.324;2023-07-20T01:00:54;3.03;;;1.80;;
67995;SDS011;54772;53.544;49.324;2023-07-20T01:03:41;3.17;;;1.95;;
67995;SDS011;54772;53.544;49.324;2023-07-20T01:09:23;2.87;;;1.77;;
67995;SDS011;54772;53.544;49.324;2023-07-20T01:12:48;2.42;;;1.60;;
67995;SDS011;54772;53.544;49.324;2023-07-20T01:15:37;3.45;;;2.05;;
67995;SDS011;54772;53.544;49.324;2023-07-20T01:18:24;2.10;;;1.87;;
67995;SDS011;54772;53.544;49.324;2023-07-20T01:21:18;2.55;;;2.00;;
67995;SDS011;54772;53.544;49.324;2023-07-20T01:33:02;4.82;;;2.00;;
67995;SDS011;54772;53.544;49.324;2023-07-20T01:35:51;2.50;;;2.00;;
67995;SDS011;54772;53.544;49.324;2023-07-20T01:38:40;4.07;;;2.37;;
67995;SDS011;54772;53.544;49.324;2023-07-20T01:41:27;2.20;;;2.00;;
67995;SDS011;54772;53.544;49.324;2023-07-20T01:47:00;3.50;;;2.23;;
67995;SDS011;54772;53.544;49.324;2023-07-20T01:49:46;3.28;;;2.12;;
67995;SDS011;54772;53.544;49.324;2023-07-20T01:55:19;3.78;;;2.47;;
67995;SDS011;54772;53.544;49.324;2023-07-20T01:58:06;2.47;;;2.00;;
67995;SDS011;54772;53.544;49.324;2023-07-20T02:03:40;4.93;;;2.17;;
67995;SDS011;54772;53.544;49.324;2023-07-20T02:06:26;5.32;;;2.40;;
67995;SDS011;54772;53.544;49.324;2023-07-20T02:09:13;3.28;;;2.40;;
67995;SDS011;54772;53.544;49.324;2023-07-20T02:12:00;3.42;;;2.20;;
67995;SDS011;54772;53.544;49.324;2023-07-20T02:14:46;4.30;;;2.40;;
67995;SDS011;54772;53.544;49.324;2023-07-20T02:17:36;4.78;;;2.47;;
67995;SDS011;54772;53.544;49.324;2023-07-20T02:20:23;5.32;;;2.95;;
67995;SDS011;54772;53.544;49.324;2023-07-20T02:23:10;3.12;;;2.20;;
67995;SDS011;54772;53.544;49.324;2023-07-20T02:25:57;4.18;;;2.60;;
67995;SDS011;54772;53.544;49.324;2023-07-20T02:31:30;3.72;;;2.40;;
67995;SDS011;54772;53.544;49.324;2023-07-20T02:34:17;4.35;;;2.40;;
67995;SDS011;54772;53.544;49.324;2023-07-20T02:37:05;5.37;;;2.58;;
67995;SDS011;54772;53.544;49.324;2023-07-20T02:39:54;3.12;;;2.20;;
67995;SDS011;54772;53.544;49.324;2023-07-20T02:42:41;3.72;;;2.53;;
67995;SDS011;54772;53.544;49.324;2023-07-20T02:45:28;7.68;;;2.85;;
67995;SDS011;54772;53.544;49.324;2023-07-20T02:48:14;5.40;;;2.58;;
67995;SDS011;54772;53.544;49.324;2023-07-20T02:51:01;4.65;;;2.72;;
67995;SDS011;54772;53.544;49.324;2023-07-20T02:53:47;4.78;;;2.50;;
67995;SDS011;54772;53.544;49.324;2023-07-20T02:59:20;6.37;;;2.58;;
67995;SDS011;54772;53.544;49.324;2023-07-20T03:04:56;3.30;;;2.42;;
67995;SDS011;54772;53.544;49.324;2023-07-20T03:07:43;5.40;;;2.47;;
67995;SDS011;54772;53.544;49.324;2023-07-20T03:10:30;4.70;;;2.20;;
67995;SDS011;54772;53.544;49.324;2023-07-20T03:13:17;4.82;;;2.50;;
67995;SDS011;54772;53.544;49.324;2023-07-20T03:16:04;2.45;;;2.15;;
67995;SDS011;54772;53.544;49.324;2023-07-20T03:18:56;5.25;;;2.60;;
67995;SDS011;54772;53.544;49.324;2023-07-20T03:21:44;3.15;;;2.42;;
67995;SDS011;54772;53.544;49.324;2023-07-20T03:27:18;7.25;;;2.50;;
67995;SDS011;54772;53.544;49.324;2023-07-20T03:30:05;3.35;;;2.37;;
67995;SDS011;54772;53.544;49.324;2023-07-20T03:32:53;4.10;;;2.50;;
67995;SDS011;54772;53.544;49.324;2023-07-20T03:38:28;4.25;;;2.47;;
67995;SDS011;54772;53.544;49.324;2023-07-20T03:44:02;8.07;;;2.93;;
67995;SDS011;54772;53.544;49.324;2023-07-20T03:49:35;7.82;;;2.65;;
67995;SDS011;54772;53.544;49.324;2023-07-20T03:52:21;5.18;;;2.83;;
67995;SDS011;54772;53.544;49.324;2023-07-20T03:55:09;5.32;;;3.05;;
67995;SDS011;54772;53.544;49.324;2023-07-20T03:57:55;5.60;;;2.87;;
67995;SDS011;54772;53.544;49.324;2023-07-20T04:00:45;8.73;;;2.72;;
67995;SDS011;54772;53.544;49.324;2023-07-20T04:03:33;6.55;;;3.17;;
67995;SDS011;54772;53.544;49.324;2023-07-20T04:06:20;4.70;;;3.22;;
67995;SDS011;54772;53.544;49.324;2023-07-20T04:11:53;4.95;;;3.08;;
67995;SDS011;54772;53.544;49.324;2023-07-20T04:14:40;8.45;;;3.37;;
67995;SDS011;54772;53.544;49.324;2023-07-20T04:17:27;6.95;;;3.78;;
67995;SDS011;54772;53.544;49.324;2023-07-20T04:20:14;9.02;;;3.70;;
67995;SDS011;54772;53.544;49.324;2023-07-20T04:23:03;6.87;;;3.47;;
67995;SDS011;54772;53.544;49.324;2023-07-20T04:25:51;7.68;;;3.70;;
67995;SDS011;54772;53.544;49.324;2023-07-20T04:28:38;5.32;;;3.20;;
67995;SDS011;54772;53.544;49.324;2023-07-20T04:31:28;7.22;;;3.80;;
67995;SDS011;54772;53.544;49.324;2023-07-20T04:34:18;6.65;;;3.90;;
67995;SDS011;54772;53.544;49.324;2023-07-20T04:37:05;5.50;;;4.10;;
67995;SDS011;54772;53.544;49.324;2023-07-20T04:39:52;6.70;;;3.65;;
67995;SDS011;54772;53.544;49.324;2023-07-20T04:42:39;5.78;;;2.92;;
67995;SDS011;54772;53.544;49.324;2023-07-20T04:45:26;6.70;;;3.95;;
67995;SDS011;54772;53.544;49.324;2023-07-20T04:48:14;6.10;;;3.90;;
67995;SDS011;54772;53.544;49.324;2023-07-20T04:51:03;8.32;;;4.75;;
67995;SDS011;54772;53.544;49.324;2023-07-20T04:53:50;10.13;;;3.90;;
67995;SDS011;54772;53.544;49.324;2023-07-20T04:56:37;7.30;;;4.32;;
67995;SDS011;54772;53.544;49.324;2023-07-20T04:59:24;7.97;;;3.20;;
67995;SDS011;54772;53.544;49.324;2023-07-20T05:04:57;8.23;;;3.70;;
67995;SDS011;54772;53.544;49.324;2023-07-20T05:10:30;4.62;;;3.37;;
67995;SDS011;54772;53.544;49.324;2023-07-20T05:13:17;5.18;;;3.00;;
67995;SDS011;54772;53.544;49.324;2023-07-20T05:16:04;6.05;;;3.78;;
67995;SDS011;54772;53.544;49.324;2023-07-20T05:18:51;6.30;;;3.47;;
67995;SDS011;54772;53.544;49.324;2023-07-20T05:21:38;2.42;;;1.90;;
67995;SDS011;54772;53.544;49.324;2023-07-20T05:24:25;3.95;;;2.75;;
67995;SDS011;54772;53.544;49.324;2023-07-20T05:27:12;8.65;;;3.75;;
67995;SDS011;54772;53.544;49.324;2023-07-20T05:29:58;5.37;;;3.10;;
67995;SDS011;54772;53.544;49.324;2023-07-20T05:32:45;5.80;;;3.58;;
67995;SDS011;54772;53.544;49.324;2023-07-20T05:35:36;5.28;;;3.37;;
67995;SDS011;54772;53.544;49.324;2023-07-20T05:38:23;5.22;;;3.80;;
67995;SDS011;54772;53.544;49.324;2023-07-20T05:41:10;7.45;;;3.70;;
67995;SDS011;54772;53.544;49.324;2023-07-20T05:43:57;4.75;;;3.20;;
67995;SDS011;54772;53.544;49.324;2023-07-20T05:49:30;8.35;;;3.35;;
67995;SDS011;54772;53.544;49.324;2023-07-20T05:52:17;7.18;;;3.92;;
67995;SDS011;54772;53.544;49.324;2023-07-20T05:57:50;7.22;;;3.50;;
67995;SDS011;54772;53.544;49.324;2023-07-20T06:00:36;7.53;;;3.60;;
67995;SDS011;54772;53.544;49.324;2023-07-20T06:03:23;5.87;;;3.70;;
67995;SDS011;54772;53.544;49.324;2023-07-20T06:06:10;8.65;;;4.30;;
67995;SDS011;54772;53.544;49.324;2023-07-20T06:08:58;7.18;;;4.20;;
67995;SDS011;54772;53.544;49.324;2023-07-20T06:11:48;5.60;;;3.37;;
67995;SDS011;54772;53.544;49.324;2023-07-20T06:14:35;5.20;;;2.90;;
67995;SDS011;54772;53.544;49.324;2023-07-20T06:20:08;5.18;;;3.15;;
67995;SDS011;54772;53.544;49.324;2023-07-20T06:22:56;7.07;;;3.55;;
67995;SDS011;54772;53.544;49.324;2023-07-20T06:25:43;7.28;;;3.28;;
67995;SDS011;54772;53.544;49.324;2023-07-20T06:28:30;5.03;;;3.30;;
67995;SDS011;54772;53.544;49.324;2023-07-20T06:34:03;6.25;;;2.58;;
67995;SDS011;54772;53.544;49.324;2023-07-20T06:36:50;3.40;;;1.85;;
67995;SDS011;54772;53.544;49.324;2023-07-20T06:39:36;3.15;;;1.85;;
67995;SDS011;54772;53.544;49.324;2023-07-20T06:42:23;3.40;;;2.05;;
67995;SDS011;54772;53.544;49.324;2023-07-20T06:45:10;4.55;;;2.25;;
67995;SDS011;54772;53.544;49.324;2023-07-20T06:47:57;4.43;;;2.45;;
67995;SDS011;54772;53.544;49.324;2023-07-20T06:50:44;2.42;;;1.37;;
67995;SDS011;54772;53.544;49.324;2023-07-20T06:53:31;4.12;;;1.60;;
67995;SDS011;54772;53.544;49.324;2023-07-20T06:56:18;4.85;;;2.05;;
67995;SDS011;54772;53.544;49.324;2023-07-20T06:59:04;2.08;;;1.60;;
67995;SDS011;54772;53.544;49.324;2023-07-20T07:01:51;5.32;;;2.03;;
67995;SDS011;54772;53.544;49.324;2023-07-20T07:04:38;3.97;;;1.87;;
67995;SDS011;54772;53.544;49.324;2023-07-20T07:10:11;2.83;;;1.50;;
67995;SDS011;54772;53.544;49.324;2023-07-20T07:12:58;2.25;;;1.65;;
67995;SDS011;54772;53.544;49.324;2023-07-20T07:15:45;3.08;;;1.50;;
67995;SDS011;54772;53.544;49.324;2023-07-20T07:18:32;4.50;;;2.10;;
67995;SDS011;54772;53.544;49.324;2023-07-20T07:21:18;2.10;;;1.90;;
67995;SDS011;54772;53.544;49.324;2023-07-20T07:26:52;3.85;;;1.90;;
67995;SDS011;54772;53.544;49.324;2023-07-20T07:29:39;1.58;;;1.45;;
67995;SDS011;54772;53.544;49.324;2023-07-20T07:32:26;2.72;;;1.52;;
67995;SDS011;54772;53.544;49.324;2023-07-20T07:35:12;3.05;;;2.00;;
67995;SDS011;54772;53.544;49.324;2023-07-20T07:37:59;2.58;;;1.55;;
67995;SDS011;54772;53.544;49.324;2023-07-20T07:43:32;4.87;;;1.95;;
67995;SDS011;54772;53.544;49.324;2023-07-20T07:46:20;4.25;;;2.35;;
67995;SDS011;54772;53.544;49.324;2023-07-20T07:49:07;3.33;;;2.15;;
67995;SDS011;54772;53.544;49.324;2023-07-20T07:51:53;2.50;;;1.85;;
67995;SDS011;54772;53.544;49.324;2023-07-20T07:54:40;3.28;;;1.80;;
67995;SDS011;54772;53.544;49.324;2023-07-20T07:57:27;2.75;;;2.10;;
67995;SDS011;54772;53.544;49.324;2023-07-20T08:00:14;3.70;;;2.10;;
67995;SDS011;54772;53.544;49.324;2023-07-20T08:03:05;3.60;;;1.90;;
67995;SDS011;54772;53.544;49.324;2023-07-20T08:05:56;5.43;;;2.20;;
67995;SDS011;54772;53.544;49.324;2023-07-20T08:08:43;3.78;;;1.90;;
67995;SDS011;54772;53.544;49.324;2023-07-20T08:11:30;2.83;;;1.98;;
67995;SDS011;54772;53.544;49.324;2023-07-20T08:14:18;2.83;;;2.10;;
67995;SDS011;54772;53.544;49.324;2023-07-20T08:17:05;3.97;;;1.92;;
67995;SDS011;54772;53.544;49.324;2023-07-20T08:19:52;5.20;;;1.75;;
67995;SDS011;54772;53.544;49.324;2023-07-20T08:22:39;4.37;;;2.00;;
67995;SDS011;54772;53.544;49.324;2023-07-20T08:25:25;2.28;;;1.83;;
67995;SDS011;54772;53.544;49.324;2023-07-20T08:28:13;3.15;;;1.77;;
67995;SDS011;54772;53.544;49.324;2023-07-20T08:31:00;3.97;;;2.12;;
67995;SDS011;54772;53.544;49.324;2023-07-20T08:33:48;3.85;;;1.92;;
67995;SDS011;54772;53.544;49.324;2023-07-20T08:36:34;3.20;;;2.00;;
67995;SDS011;54772;53.544;49.324;2023-07-20T08:39:22;3.50;;;2.05;;
67995;SDS011;54772;53.544;49.324;2023-07-20T08:42:10;3.22;;;1.70;;
67995;SDS011;54772;53.544;49.324;2023-07-20T08:44:57;2.85;;;1.98;;
67995;SDS011;54772;53.544;49.324;2023-07-20T08:47:43;3.95;;;1.80;;
67995;SDS011;54772;53.544;49.324;2023-07-20T08:50:32;4.30;;;1.70;;
67995;SDS011;54772;53.544;49.324;2023-07-20T08:53:19;3.37;;;1.77;;
67995;SDS011;54772;53.544;49.324;2023-07-20T08:56:06;1.70;;;1.58;;
67995;SDS011;54772;53.544;49.324;2023-07-20T08:58:56;3.80;;;2.00;;
67995;SDS011;54772;53.544;49.324;2023-07-20T09:01:44;2.45;;;1.80;;
67995;SDS011;54772;53.544;49.324;2023-07-20T09:04:31;2.58;;;1.55;;
67995;SDS011;54772;53.544;49.324;2023-07-20T09:07:20;3.90;;;1.83;;
67995;SDS011;54772;53.544;49.324;2023-07-20T09:10:07;2.00;;;1.48;;
67995;SDS011;54772;53.544;49.324;2023-07-20T09:12:55;1.73;;;1.40;;
67995;SDS011;54772;53.544;49.324;2023-07-20T09:15:46;3.65;;;1.73;;
67995;SDS011;54772;53.544;49.324;2023-07-20T09:18:36;2.53;;;1.65;;
67995;SDS011;54772;53.544;49.324;2023-07-20T09:21:23;5.10;;;2.05;;
67995;SDS011;54772;53.544;49.324;2023-07-20T09:24:20;2.78;;;1.67;;
67995;SDS011;54772;53.544;49.324;2023-07-20T09:27:06;3.95;;;1.95;;
67995;SDS011;54772;53.544;49.324;2023-07-20T09:29:54;1.92;;;1.55;;
67995;SDS011;54772;53.544;49.324;2023-07-20T09:32:44;1.70;;;1.30;;
67995;SDS011;54772;53.544;49.324;2023-07-20T09:35:35;3.40;;;1.70;;
67995;SDS011;54772;53.544;49.324;2023-07-20T09:38:22;4.85;;;1.85;;
67995;SDS011;54772;53.544;49.324;2023-07-20T09:41:13;3.50;;;1.85;;
67995;SDS011;54772;53.544;49.324;2023-07-20T09:44:00;4.80;;;1.90;;
67995;SDS011;54772;53.544;49.324;2023-07-20T09:46:47;1.87;;;1.60;;
67995;SDS011;54772;53.544;49.324;2023-07-20T09:49:39;2.53;;;1.60;;
67995;SDS011;54772;53.544;49.324;2023-07-20T09:52:29;2.20;;;1.58;;
67995;SDS011;54772;53.544;49.324;2023-07-20T09:55:16;1.92;;;1.25;;
67995;SDS011;54772;53.544;49.324;2023-07-20T09:58:03;2.78;;;1.30;;
67995;SDS011;54772;53.544;49.324;2023-07-20T10:00:52;2.92;;;1.70;;
67995;SDS011;54772;53.544;49.324;2023-07-20T10:03:39;1.95;;;1.40;;
67995;SDS011;54772;53.544;49.324;2023-07-20T10:06:28;4.80;;;1.65;;
67995;SDS011;54772;53.544;49.324;2023-07-20T10:09:17;3.95;;;1.83;;
67995;SDS011;54772;53.544;49.324;2023-07-20T10:12:05;3.80;;;1.40;;
67995;SDS011;54772;53.544;49.324;2023-07-20T10:15:11;4.95;;;2.00;;
67995;SDS011;54772;53.544;49.324;2023-07-20T10:21:14;3.22;;;2.00;;
67995;SDS011;54772;53.544;49.324;2023-07-20T10:24:04;4.78;;;2.37;;
67995;SDS011;54772;53.544;49.324;2023-07-20T10:26:53;2.53;;;1.55;;
67995;SDS011;54772;53.544;49.324;2023-07-20T10:29:40;2.33;;;1.70;;
67995;SDS011;54772;53.544;49.324;2023-07-20T10:32:27;2.22;;;1.62;;
67995;SDS011;54772;53.544;49.324;2023-07-20T10:35:15;4.97;;;1.92;;
67995;SDS011;54772;53.544;49.324;2023-07-20T10:38:04;2.65;;;1.37;;
67995;SDS011;54772;53.544;49.324;2023-07-20T10:40:54;2.65;;;1.77;;
67995;SDS011;54772;53.544;49.324;2023-07-20T10:43:44;4.00;;;1.98;;
67995;SDS011;54772;53.544;49.324;2023-07-20T10:49:28;4.18;;;1.73;;
67995;SDS011;54772;53.544;49.324;2023-07-20T10:52:15;1.62;;;1.30;;
67995;SDS011;54772;53.544;49.324;2023-07-20T10:58:08;2.05;;;1.75;;
67995;SDS011;54772;53.544;49.324;2023-07-20T11:01:01;3.78;;;2.03;;
67995;SDS011;54772;53.544;49.324;2023-07-20T11:03:49;2.45;;;1.40;;
67995;SDS011;54772;53.544;49.324;2023-07-20T11:06:36;1.40;;;1.17;;
67995;SDS011;54772;53.544;49.324;2023-07-20T11:09:25;1.85;;;1.40;;
67995;SDS011;54772;53.544;49.324;2023-07-20T11:12:18;2.37;;;1.58;;
67995;SDS011;54772;53.544;49.324;2023-07-20T11:15:04;2.35;;;1.70;;
67995;SDS011;54772;53.544;49.324;2023-07-20T11:17:52;1.60;;;1.50;;
67995;SDS011;54772;53.544;49.324;2023-07-20T11:23:25;3.55;;;1.95;;
67995;SDS011;54772;53.544;49.324;2023-07-20T11:26:12;4.57;;;2.15;;
67995;SDS011;54772;53.544;49.324;2023-07-20T11:29:01;4.00;;;2.10;;
67995;SDS011;54772;53.544;49.324;2023-07-20T11:31:48;4.12;;;1.90;;
67995;SDS011;54772;53.544;49.324;2023-07-20T11:34:35;2.95;;;1.87;;
67995;SDS011;54772;53.544;49.324;2023-07-20T11:37:21;1.67;;;1.35;;
67995;SDS011;54772;53.544;49.324;2023-07-20T11:40:09;2.25;;;1.50;;
67995;SDS011;54772;53.544;49.324;2023-07-20T11:42:56;2.78;;;1.50;;
67995;SDS011;54772;53.544;49.324;2023-07-20T11:45:44;4.55;;;1.48;;
67995;SDS011;54772;53.544;49.324;2023-07-20T11:48:31;4.93;;;2.00;;
67995;SDS011;54772;53.544;49.324;2023-07-20T11:51:18;4.10;;;2.05;;
67995;SDS011;54772;53.544;49.324;2023-07-20T11:54:07;2.75;;;1.92;;
67995;SDS011;54772;53.544;49.324;2023-07-20T11:56:54;3.60;;;1.60;;
67995;SDS011;54772;53.544;49.324;2023-07-20T11:59:52;3.62;;;1.65;;
67995;SDS011;54772;53.544;49.324;2023-07-20T12:02:43;2.05;;;1.73;;
67995;SDS011;54772;53.544;49.324;2023-07-20T12:05:30;2.78;;;2.12;;
67995;SDS011;54772;53.544;49.324;2023-07-20T12:08:16;1.95;;;1.55;;
67995;SDS011;54772;53.544;49.324;2023-07-20T12:11:03;2.87;;;1.60;;
67995;SDS011;54772;53.544;49.324;2023-07-20T12:13:49;3.62;;;1.58;;
67995;SDS011;54772;53.544;49.324;2023-07-20T12:16:36;4.57;;;1.85;;
67995;SDS011;54772;53.544;49.324;2023-07-20T12:19:24;1.98;;;1.77;;
67995;SDS011;54772;53.544;49.324;2023-07-20T12:22:11;2.35;;;1.52;;
67995;SDS011;54772;53.544;49.324;2023-07-20T12:24:58;1.90;;;1.50;;
67995;SDS011;54772;53.544;49.324;2023-07-20T12:27:45;2.80;;;1.80;;
67995;SDS011;54772;53.544;49.324;2023-07-20T12:30:33;2.97;;;1.65;;
67995;SDS011;54772;53.544;49.324;2023-07-20T12:33:19;2.35;;;1.75;;
67995;SDS011;54772;53.544;49.324;2023-07-20T12:36:06;3.05;;;1.67;;
67995;SDS011;54772;53.544;49.324;2023-07-20T12:38:54;3.30;;;2.03;;
67995;SDS011;54772;53.544;49.324;2023-07-20T12:41:40;2.87;;;1.55;;
67995;SDS011;54772;53.544;49.324;2023-07-20T12:47:13;3.47;;;1.60;;
67995;SDS011;54772;53.544;49.324;2023-07-20T12:50:01;2.62;;;1.48;;
67995;SDS011;54772;53.544;49.324;2023-07-20T12:52:53;3.92;;;2.20;;
67995;SDS011;54772;53.544;49.324;2023-07-20T12:55:40;2.97;;;1.65;;
67995;SDS011;54772;53.544;49.324;2023-07-20T12:58:27;2.15;;;1.80;;
67995;SDS011;54772;53.544;49.324;2023-07-20T13:01:14;1.60;;;1.48;;
67995;SDS011;54772;53.544;49.324;2023-07-20T13:04:00;3.50;;;1.87;;
67995;SDS011;54772;53.544;49.324;2023-07-20T13:06:48;2.17;;;1.20;;
67995;SDS011;54772;53.544;49.324;2023-07-20T13:09:35;3.28;;;1.50;;
67995;SDS011;54772;53.544;49.324;2023-07-20T13:12:22;3.83;;;1.48;;
67995;SDS011;54772;53.544;49.324;2023-07-20T13:17:55;4.82;;;1.60;;
67995;SDS011;54772;53.544;49.324;2023-07-20T13:20:42;2.80;;;1.37;;
67995;SDS011;54772;53.544;49.324;2023-07-20T13:23:29;2.80;;;1.20;;
67995;SDS011;54772;53.544;49.324;2023-07-20T13:26:16;2.72;;;1.80;;
67995;SDS011;54772;53.544;49.324;2023-07-20T13:29:03;3.60;;;1.87;;
67995;SDS011;54772;53.544;49.324;2023-07-20T13:31:50;3.08;;;1.90;;
67995;SDS011;54772;53.544;49.324;2023-07-20T13:34:36;3.25;;;1.80;;
67995;SDS011;54772;53.544;49.324;2023-07-20T13:37:23;4.78;;;1.70;;
67995;SDS011;54772;53.544;49.324;2023-07-20T13:40:10;1.83;;;1.30;;
67995;SDS011;54772;53.544;49.324;2023-07-20T13:43:01;3.35;;;1.67;;
67995;SDS011;54772;53.544;49.324;2023-07-20T13:45:48;2.30;;;1.70;;
67995;SDS011;54772;53.544;49.324;2023-07-20T13:48:35;2.78;;;2.10;;
67995;SDS011;54772;53.544;49.324;2023-07-20T13:51:21;2.53;;;1.67;;
67995;SDS011;54772;53.544;49.324;2023-07-20T13:54:08;2.12;;;1.50;;
67995;SDS011;54772;53.544;49.324;2023-07-20T13:56:55;1.70;;;1.48;;
67995;SDS011;54772;53.544;49.324;2023-07-20T14:02:29;3.25;;;1.62;;
67995;SDS011;54772;53.544;49.324;2023-07-20T14:05:37;3.15;;;1.80;;
67995;SDS011;54772;53.544;49.324;2023-07-20T14:08:24;3.72;;;1.70;;
67995;SDS011;54772;53.544;49.324;2023-07-20T14:11:10;2.62;;;1.60;;
67995;SDS011;54772;53.544;49.324;2023-07-20T14:14:00;2.47;;;1.83;;
67995;SDS011;54772;53.544;49.324;2023-07-20T14:16:47;3.20;;;2.00;;
67995;SDS011;54772;53.544;49.324;2023-07-20T14:19:33;3.12;;;2.25;;
67995;SDS011;54772;53.544;49.324;2023-07-20T14:22:22;1.95;;;1.40;;
67995;SDS011;54772;53.544;49.324;2023-07-20T14:27:55;3.75;;;2.10;;
67995;SDS011;54772;53.544;49.324;2023-07-20T14:30:41;3.78;;;1.85;;
67995;SDS011;54772;53.544;49.324;2023-07-20T14:36:15;2.30;;;1.60;;
67995;SDS011;54772;53.544;49.324;2023-07-20T14:39:01;3.92;;;1.87;;
67995;SDS011;54772;53.544;49.324;2023-07-20T14:41:48;4.05;;;1.83;;
67995;SDS011;54772;53.544;49.324;2023-07-20T14:44:35;3.95;;;1.42;;
67995;SDS011;54772;53.544;49.324;2023-07-20T14:47:22;2.30;;;1.45;;
67995;SDS011;54772;53.544;49.324;2023-07-20T14:50:09;1.73;;;1.55;;
67995;SDS011;54772;53.544;49.324;2023-07-20T14:52:56;4.22;;;1.90;;
67995;SDS011;54772;53.544;49.324;2023-07-20T14:55:43;2.75;;;1.62;;
67995;SDS011;54772;53.544;49.324;2023-07-20T14:58:30;4.22;;;2.05;;
67995;SDS011;54772;53.544;49.324;2023-07-20T15:01:17;3.62;;;1.80;;
67995;SDS011;54772;53.544;49.324;2023-07-20T15:04:03;3.37;;;1.87;;
67995;SDS011;54772;53.544;49.324;2023-07-20T15:06:50;2.62;;;1.62;;
67995;SDS011;54772;53.544;49.324;2023-07-20T15:09:36;2.58;;;1.90;;
67995;SDS011;54772;53.544;49.324;2023-07-20T15:12:23;5.50;;;1.80;;
67995;SDS011;54772;53.544;49.324;2023-07-20T15:17:56;2.23;;;1.50;;
67995;SDS011;54772;53.544;49.324;2023-07-20T15:23:29;4.37;;;2.05;;
67995;SDS011;54772;53.544;49.324;2023-07-20T15:29:02;4.12;;;1.90;;
67995;SDS011;54772;53.544;49.324;2023-07-20T15:31:48;2.08;;;1.50;;
67995;SDS011;54772;53.544;49.324;2023-07-20T15:34:35;5.30;;;2.00;;
67995;SDS011;54772;53.544;49.324;2023-07-20T15:37:23;6.10;;;2.55;;
67995;SDS011;54772;53.544;49.324;2023-07-20T15:40:09;2.90;;;1.92;;
67995;SDS011;54772;53.544;49.324;2023-07-20T15:42:57;5.95;;;1.92;;
67995;SDS011;54772;53.544;49.324;2023-07-20T15:45:45;3.53;;;1.55;;
67995;SDS011;54772;53.544;49.324;2023-07-20T15:48:35;2.30;;;1.37;;
67995;SDS011;54772;53.544;49.324;2023-07-20T15:51:22;5.03;;;1.85;;
67995;SDS011;54772;53.544;49.324;2023-07-20T15:54:09;2.65;;;1.17;;
67995;SDS011;54772;53.544;49.324;2023-07-20T15:56:56;3.45;;;1.15;;
67995;SDS011;54772;53.544;49.324;2023-07-20T15:59:45;2.87;;;1.30;;
67995;SDS011;54772;53.544;49.324;2023-07-20T16:05:18;3.15;;;1.62;;
67995;SDS011;54772;53.544;49.324;2023-07-20T16:08:05;3.72;;;1.65;;
67995;SDS011;54772;53.544;49.324;2023-07-20T16:10:52;3.10;;;1.60;;
67995;SDS011;54772;53.544;49.324;2023-07-20T16:13:42;3.47;;;1.35;;
67995;SDS011;54772;53.544;49.324;2023-07-20T16:16:30;3.25;;;1.67;;
67995;SDS011;54772;53.544;49.324;2023-07-20T16:19:18;6.03;;;2.80;;
67995;SDS011;54772;53.544;49.324;2023-07-20T16:24:53;4.20;;;2.20;;
67995;SDS011;54772;53.544;49.324;2023-07-20T16:27:40;4.30;;;2.30;;
67995;SDS011;54772;53.544;49.324;2023-07-20T16:33:13;1.57;;;1.40;;
67995;SDS011;54772;53.544;49.324;2023-07-20T16:36:00;4.07;;;1.37;;
67995;SDS011;54772;53.544;49.324;2023-07-20T16:38:47;3.15;;;1.42;;
67995;SDS011;54772;53.544;49.324;2023-07-20T16:41:34;2.72;;;1.40;;
67995;SDS011;54772;53.544;49.324;2023-07-20T16:44:21;3.87;;;1.42;;
67995;SDS011;54772;53.544;49.324;2023-07-20T16:47:08;1.95;;;1.20;;
67995;SDS011;54772;53.544;49.324;2023-07-20T16:49:56;5.05;;;1.23;;
67995;SDS011;54772;53.544;49.324;2023-07-20T16:55:29;5.23;;;1.43;;
67995;SDS011;54772;53.544;49.324;2023-07-20T16:58:18;2.05;;;1.45;;
67995;SDS011;54772;53.544;49.324;2023-07-20T17:01:06;1.80;;;1.30;;
67995;SDS011;54772;53.544;49.324;2023-07-20T17:03:53;4.05;;;1.65;;
67995;SDS011;54772;53.544;49.324;2023-07-20T17:06:39;3.17;;;1.60;;
67995;SDS011;54772;53.544;49.324;2023-07-20T17:09:26;4.43;;;1.60;;
67995;SDS011;54772;53.544;49.324;2023-07-20T17:14:59;3.37;;;1.60;;
67995;SDS011;54772;53.544;49.324;2023-07-20T17:17:47;1.92;;;1.30;;
67995;SDS011;54772;53.544;49.324;2023-07-20T17:20:36;3.12;;;1.20;;
67995;SDS011;54772;53.544;49.324;2023-07-20T17:23:23;1.40;;;1.20;;
67995;SDS011;54772;53.544;49.324;2023-07-20T17:26:14;2.55;;;1.55;;
67995;SDS011;54772;53.544;49.324;2023-07-20T17:29:01;1.15;;;1.08;;
67995;SDS011;54772;53.544;49.324;2023-07-20T17:31:49;3.22;;;1.58;;
67995;SDS011;54772;53.544;49.324;2023-07-20T17:34:36;3.12;;;1.12;;
67995;SDS011;54772;53.544;49.324;2023-07-20T17:37:24;2.25;;;1.35;;
67995;SDS011;54772;53.544;49.324;2023-07-20T17:40:12;2.53;;;1.40;;
67995;SDS011;54772;53.544;49.324;2023-07-20T17:42:58;2.37;;;1.67;;
67995;SDS011;54772;53.544;49.324;2023-07-20T17:45:48;4.15;;;1.37;;
67995;SDS011;54772;53.544;49.324;2023-07-20T17:48:35;3.22;;;1.90;;
67995;SDS011;54772;53.544;49.324;2023-07-20T17:51:22;2.72;;;1.50;;
67995;SDS011;54772;53.544;49.324;2023-07-20T17:56:59;4.62;;;1.90;;
67995;SDS011;54772;53.544;49.324;2023-07-20T17:59:45;4.47;;;1.80;;
67995;SDS011;54772;53.544;49.324;2023-07-20T18:02:32;3.25;;;1.98;;
67995;SDS011;54772;53.544;49.324;2023-07-20T18:08:05;3.67;;;1.92;;
67995;SDS011;54772;53.544;49.324;2023-07-20T18:10:52;5.03;;;2.22;;
67995;SDS011;54772;53.544;49.324;2023-07-20T18:13:39;4.30;;;2.30;;
67995;SDS011;54772;53.544;49.324;2023-07-20T18:16:26;3.60;;;1.92;;
67995;SDS011;54772;53.544;49.324;2023-07-20T18:21:59;5.12;;;2.08;;
67995;SDS011;54772;53.544;49.324;2023-07-20T18:24:45;4.40;;;2.08;;
67995;SDS011;54772;53.544;49.324;2023-07-20T18:27:34;3.95;;;1.85;;
67995;SDS011;54772;53.544;49.324;2023-07-20T18:30:22;5.15;;;1.95;;
67995;SDS011;54772;53.544;49.324;2023-07-20T18:33:10;2.25;;;1.67;;
67995;SDS011;54772;53.544;49.324;2023-07-20T18:38:43;6.43;;;1.95;;
67995;SDS011;54772;53.544;49.324;2023-07-20T18:44:17;3.37;;;1.58;;
67995;SDS011;54772;53.544;49.324;2023-07-20T18:49:50;3.00;;;1.85;;
67995;SDS011;54772;53.544;49.324;2023-07-20T18:52:39;4.43;;;1.92;;
67995;SDS011;54772;53.544;49.324;2023-07-20T18:55:28;4.60;;;1.83;;
67995;SDS011;54772;53.544;49.324;2023-07-20T18:58:17;3.15;;;1.90;;